Time;durP1;ratioP1;P1;durP2;ratioP2;P2;SDS_P1;SDS_P2;PMS_P1;PMS_P2;Temp;Humidity;BMP_temperature;BMP_pressure;BME280_temperature;BME280_humidity;BME280_pressure;Samples;Min_cycle;Max_cycle;Signal;HPM_P1;HPM_P2
2022/09/06 00:02:14;;;;;;;4.07;3.10;;;19.20;99.90;;;;;;5015344;28;20184;-87
2022/09/06 00:04:39;;;;;;;3.65;3.28;;;19.10;99.90;;;;;;5014021;28;20180;-85
2022/09/06 00:07:05;;;;;;;4.15;3.03;;;19.20;99.90;;;;;;5013805;28;20685;-86
2022/09/06 00:09:30;;;;;;;4.57;3.58;;;19.20;99.90;;;;;;5015045;28;20502;-88
2022/09/06 00:11:56;;;;;;;4.15;3.63;;;19.30;99.90;;;;;;5015863;28;20369;-90
2022/09/06 00:14:21;;;;;;;5.65;3.38;;;19.20;99.90;;;;;;5015704;28;20176;-90
2022/09/06 00:16:47;;;;;;;3.92;3.63;;;19.20;99.90;;;;;;5015204;28;20172;-89
2022/09/06 00:19:13;;;;;;;3.22;2.90;;;19.20;99.90;;;;;;5016135;28;20176;-87
2022/09/06 00:21:39;;;;;;;3.25;2.90;;;19.20;99.90;;;;;;5014739;28;20612;-86
2022/09/06 00:24:04;;;;;;;4.40;3.75;;;19.20;99.90;;;;;;5014289;28;20188;-89
2022/09/06 00:26:30;;;;;;;5.10;3.65;;;19.20;99.90;;;;;;5016117;28;20238;-88
2022/09/06 00:28:56;;;;;;;3.40;3.10;;;19.20;99.90;;;;;;5014480;28;20212;-87
2022/09/06 00:31:24;;;;;;;3.00;2.80;;;19.20;99.90;;;;;;5014914;28;20177;-90
2022/09/06 00:33:50;;;;;;;3.63;3.08;;;19.30;99.90;;;;;;5015788;28;20222;-86
2022/09/06 00:36:16;;;;;;;3.45;3.13;;;19.30;99.90;;;;;;5014172;28;20176;-83
2022/09/06 00:38:42;;;;;;;9.13;2.38;;;19.40;99.90;;;;;;5015491;28;20183;-84
2022/09/06 00:41:10;;;;;;;4.57;2.30;;;19.40;99.90;;;;;;5033187;28;20172;-82
2022/09/06 00:43:35;;;;;;;5.38;2.50;;;19.40;99.90;;;;;;5031760;28;20223;-82
2022/09/06 00:46:02;;;;;;;2.78;2.47;;;19.40;99.90;;;;;;5029286;28;20212;-82
2022/09/06 00:48:28;;;;;;;2.72;2.53;;;19.30;99.90;;;;;;5033103;28;20172;-83
2022/09/06 00:50:59;;;;;;;4.03;1.95;;;19.30;99.90;;;;;;5036087;28;20177;-86
2022/09/06 00:53:25;;;;;;;2.63;2.42;;;19.40;99.90;;;;;;5035757;28;20202;-82
2022/09/06 00:55:51;;;;;;;4.18;2.95;;;19.40;99.90;;;;;;5015158;28;20164;-83
2022/09/06 00:58:17;;;;;;;4.22;2.53;;;19.30;99.90;;;;;;5012472;28;20645;-82
2022/09/06 01:00:46;;;;;;;2.42;2.22;;;19.30;99.90;;;;;;5013660;28;20246;-82
2022/09/06 01:03:12;;;;;;;2.53;2.25;;;19.30;99.90;;;;;;5012197;28;20193;-82
2022/09/06 01:06:09;;;;;;;3.58;2.50;;;19.20;99.90;;;;;;5012008;28;20212;-82
2022/09/06 01:08:43;;;;;;;7.22;2.45;;;19.20;99.90;;;;;;5011873;28;20179;-82
2022/09/06 01:11:26;;;;;;;3.78;2.45;;;19.30;99.90;;;;;;5012006;28;20244;-82
2022/09/06 01:14:19;;;;;;;2.55;2.13;;;19.30;99.90;;;;;;5011973;28;20284;-82
2022/09/06 01:17:02;;;;;;;3.75;2.00;;;19.30;99.90;;;;;;5011826;28;20168;-82
2022/09/06 01:19:58;;;;;;;2.88;2.10;;;19.30;99.90;;;;;;5011960;28;20218;-82
2022/09/06 01:22:52;;;;;;;2.42;2.20;;;19.30;99.90;;;;;;5012835;28;20291;-82
2022/09/06 01:25:26;;;;;;;2.67;2.25;;;19.30;99.90;;;;;;5012964;28;20181;-83
2022/09/06 01:28:07;;;;;;;2.17;2.08;;;19.40;99.90;;;;;;5011716;28;20583;-83
2022/09/06 01:30:37;;;;;;;4.05;2.53;;;19.40;99.90;;;;;;5011452;28;20700;-82
2022/09/06 01:33:07;;;;;;;2.33;2.13;;;19.50;99.90;;;;;;5013007;28;20726;-82
2022/09/06 01:35:40;;;;;;;7.22;1.90;;;19.50;99.90;;;;;;5011899;28;20173;-82
2022/09/06 01:38:07;;;;;;;4.28;2.42;;;19.60;99.90;;;;;;5011689;28;20183;-83
2022/09/06 01:40:35;;;;;;;2.20;2.00;;;19.40;99.90;;;;;;5011547;28;20267;-82
2022/09/06 01:43:04;;;;;;;2.50;2.30;;;19.40;99.90;;;;;;5012631;28;20188;-82
2022/09/06 01:45:40;;;;;;;2.65;2.45;;;19.50;99.90;;;;;;5011416;28;20218;-82
2022/09/06 01:48:29;;;;;;;2.92;2.08;;;19.30;99.90;;;;;;5011311;28;20218;-82
2022/09/06 01:51:08;;;;;;;4.10;2.15;;;19.40;99.90;;;;;;5012479;28;20165;-82
2022/09/06 01:53:52;;;;;;;3.92;2.10;;;19.40;99.90;;;;;;5011153;28;20208;-82
2022/09/06 01:56:36;;;;;;;3.20;2.47;;;19.50;99.90;;;;;;5026692;23;20289;-85
2022/09/06 01:59:16;;;;;;;2.75;2.40;;;19.60;99.90;;;;;;5015864;28;20708;-86
2022/09/06 02:02:13;;;;;;;2.28;2.08;;;19.70;99.90;;;;;;5021757;28;20191;-86
2022/09/06 02:04:46;;;;;;;2.55;2.30;;;19.40;99.90;;;;;;5020786;28;20657;-85
2022/09/06 02:07:15;;;;;;;2.25;2.05;;;19.30;99.90;;;;;;5020221;28;20269;-86
2022/09/06 02:09:44;;;;;;;2.50;2.30;;;19.40;99.90;;;;;;5019320;28;20169;-86
2022/09/06 02:12:12;;;;;;;2.90;2.65;;;19.40;99.90;;;;;;5003899;28;20170;-87
2022/09/06 02:15:00;;;;;;;2.45;2.25;;;19.50;99.90;;;;;;5001799;28;20227;-86
2022/09/06 02:17:32;;;;;;;2.05;1.83;;;19.40;99.90;;;;;;4998210;28;20970;-86
2022/09/06 02:20:13;;;;;;;2.20;1.95;;;19.40;99.90;;;;;;4998015;28;20176;-85
2022/09/06 02:22:43;;;;;;;3.90;2.10;;;19.30;99.90;;;;;;4996892;28;20193;-86
2022/09/06 02:25:11;;;;;;;2.03;1.92;;;19.30;99.90;;;;;;4996713;28;20239;-86
2022/09/06 02:27:37;;;;;;;5.50;2.30;;;19.40;99.90;;;;;;4996872;28;20174;-86
2022/09/06 02:30:05;;;;;;;3.88;2.17;;;19.50;99.90;;;;;;4996422;28;20188;-86
2022/09/06 02:32:34;;;;;;;5.35;2.30;;;19.60;99.90;;;;;;4996223;28;20200;-87
2022/09/06 02:35:12;;;;;;;6.80;2.60;;;19.70;99.90;;;;;;4996422;28;20177;-86
2022/09/06 02:37:37;;;;;;;7.07;2.05;;;19.50;99.90;;;;;;4996491;28;20181;-86
2022/09/06 02:40:04;;;;;;;3.03;2.38;;;19.60;99.90;;;;;;4996304;28;20172;-87
2022/09/06 02:42:29;;;;;;;2.78;2.08;;;19.50;99.90;;;;;;4996195;28;20193;-85
2022/09/06 02:44:56;;;;;;;2.70;2.20;;;19.60;99.90;;;;;;4996087;28;20178;-86
2022/09/06 02:47:22;;;;;;;2.60;2.40;;;19.50;99.90;;;;;;4997359;28;20525;-87
2022/09/06 02:49:48;;;;;;;2.63;2.42;;;19.50;99.90;;;;;;4996294;28;20165;-85
2022/09/06 02:52:14;;;;;;;4.18;2.30;;;19.40;99.90;;;;;;4996131;28;21384;-86
2022/09/06 02:54:40;;;;;;;10.30;2.60;;;19.40;99.90;;;;;;4997251;28;20173;-87
2022/09/06 02:57:05;;;;;;;3.60;2.53;;;19.30;99.90;;;;;;4995821;28;20594;-86
2022/09/06 02:59:31;;;;;;;6.43;2.58;;;19.30;99.90;;;;;;5012636;28;20188;-87
2022/09/06 03:01:57;;;;;;;3.30;2.40;;;19.40;99.90;;;;;;4996171;28;20177;-85
2022/09/06 03:04:22;;;;;;;3.13;2.53;;;19.30;99.90;;;;;;4996763;28;20177;-86
2022/09/06 03:06:48;;;;;;;5.22;2.50;;;19.30;99.90;;;;;;4995904;28;20244;-86
2022/09/06 03:09:13;;;;;;;2.78;2.42;;;19.40;99.90;;;;;;4996288;28;20696;-86
2022/09/06 03:11:39;;;;;;;6.05;3.17;;;19.40;99.90;;;;;;4997293;28;20231;-86
2022/09/06 03:14:05;;;;;;;4.97;3.20;;;19.40;99.90;;;;;;4996156;28;20189;-86
2022/09/06 03:16:30;;;;;;;6.72;3.20;;;19.50;99.90;;;;;;4995677;28;20197;-86
2022/09/06 03:18:56;;;;;;;10.35;3.10;;;19.30;99.90;;;;;;5012351;28;20181;-85
2022/09/06 03:21:21;;;;;;;4.80;3.60;;;19.20;99.90;;;;;;4995959;28;20634;-86
2022/09/06 03:23:48;;;;;;;4.07;3.67;;;19.30;99.90;;;;;;4995695;28;20201;-86
2022/09/06 03:26:14;;;;;;;3.83;3.53;;;19.10;99.90;;;;;;4996894;28;20201;-86
2022/09/06 03:28:41;;;;;;;6.70;3.97;;;19.10;99.90;;;;;;4996098;28;20630;-86
2022/09/06 03:31:07;;;;;;;6.55;3.65;;;19.10;99.90;;;;;;4995648;28;20539;-86
2022/09/06 03:33:33;;;;;;;8.48;3.78;;;19.00;99.90;;;;;;4995392;28;20186;-86
2022/09/06 03:36:00;;;;;;;7.95;3.58;;;19.10;99.90;;;;;;4995666;28;20249;-86
2022/09/06 03:38:27;;;;;;;7.35;3.90;;;19.10;99.90;;;;;;4995634;28;20161;-86
2022/09/06 03:40:53;;;;;;;11.20;4.00;;;19.10;99.90;;;;;;4995905;28;20170;-88
2022/09/06 03:43:20;;;;;;;3.60;3.30;;;19.10;99.90;;;;;;4995491;28;20200;-86
2022/09/06 03:45:52;;;;;;;10.30;4.00;;;19.20;99.90;;;;;;4996077;28;20551;-85
2022/09/06 03:48:18;;;;;;;5.90;3.92;;;19.20;99.90;;;;;;4996410;28;20208;-86
2022/09/06 03:50:49;;;;;;;5.10;3.58;;;19.10;99.90;;;;;;4997136;28;20171;-90
2022/09/06 03:53:18;;;;;;;6.13;4.35;;;19.00;99.90;;;;;;4997086;28;20208;-88
2022/09/06 03:55:48;;;;;;;6.97;3.55;;;19.10;99.90;;;;;;4995553;28;20185;-86
2022/09/06 03:58:16;;;;;;;6.95;3.53;;;19.10;99.90;;;;;;4995750;28;20173;-86
2022/09/06 04:00:42;;;;;;;6.45;3.00;;;19.20;99.90;;;;;;4996007;28;20223;-85
2022/09/06 04:03:07;;;;;;;9.57;2.97;;;19.20;99.90;;;;;;4995077;28;20197;-85
2022/09/06 04:05:34;;;;;;;5.45;3.20;;;19.30;99.90;;;;;;4994746;28;20205;-85
2022/09/06 04:08:00;;;;;;;10.25;3.35;;;19.40;99.90;;;;;;5012353;28;20471;-86
2022/09/06 04:10:25;;;;;;;8.13;3.13;;;19.40;99.90;;;;;;4995756;28;20215;-88
2022/09/06 04:12:51;;;;;;;3.10;2.80;;;19.40;99.90;;;;;;4994875;28;20559;-85
2022/09/06 04:15:17;;;;;;;5.68;3.13;;;19.30;99.90;;;;;;4995263;28;20200;-86
2022/09/06 04:17:46;;;;;;;6.93;3.70;;;19.30;99.90;;;;;;4995275;28;20185;-86
2022/09/06 04:20:14;;;;;;;6.13;2.97;;;19.50;99.90;;;;;;4995267;28;20165;-88
2022/09/06 04:22:39;;;;;;;6.38;2.90;;;19.50;99.90;;;;;;5004178;28;20289;-86
2022/09/06 04:25:06;;;;;;;8.13;2.85;;;19.50;99.90;;;;;;5011365;28;20181;-86
2022/09/06 04:27:32;;;;;;;3.22;2.72;;;19.50;99.90;;;;;;5013911;28;20169;-86
2022/09/06 04:29:57;;;;;;;9.68;3.15;;;19.40;99.90;;;;;;5014351;28;20688;-86
2022/09/06 04:32:23;;;;;;;6.50;3.45;;;19.50;99.90;;;;;;5015365;28;20197;-88
2022/09/06 04:34:48;;;;;;;10.35;3.25;;;19.40;99.90;;;;;;5016279;28;20185;-87
2022/09/06 04:37:18;;;;;;;4.70;3.00;;;19.50;99.90;;;;;;4996938;28;20185;-85
2022/09/06 04:39:44;;;;;;;5.28;3.50;;;19.40;99.90;;;;;;4996472;28;20169;-87
2022/09/06 04:42:10;;;;;;;4.82;3.00;;;19.30;99.90;;;;;;4997203;28;20153;-85
2022/09/06 04:44:36;;;;;;;11.43;3.33;;;19.30;99.90;;;;;;4995072;28;20669;-88
2022/09/06 04:47:14;;;;;;;6.50;3.25;;;19.40;99.90;;;;;;4995055;28;20627;-86
2022/09/06 04:49:43;;;;;;;8.45;3.78;;;19.40;99.90;;;;;;4994567;28;20184;-87
2022/09/06 04:52:09;;;;;;;10.73;3.38;;;19.40;99.90;;;;;;4994820;28;20180;-88
2022/09/06 04:54:35;;;;;;;4.35;3.40;;;19.60;99.90;;;;;;4994846;28;20173;-87
2022/09/06 04:57:00;;;;;;;5.57;3.40;;;19.70;99.90;;;;;;4996079;28;20204;-87
2022/09/06 04:59:26;;;;;;;3.50;3.20;;;19.80;99.90;;;;;;4998170;28;20175;-93
2022/09/06 05:02:00;;;;;;;4.07;3.10;;;19.70;99.90;;;;;;4995436;28;20823;-94
2022/09/06 05:04:25;;;;;;;3.17;2.80;;;19.70;99.90;;;;;;4994864;28;20169;-92
2022/09/06 05:07:05;;;;;;;4.28;3.25;;;19.80;99.90;;;;;;4994579;28;20205;-89
2022/09/06 05:09:32;;;;;;;9.05;3.55;;;19.70;99.90;;;;;;4993936;28;20169;-86
2022/09/06 05:11:58;;;;;;;3.40;3.10;;;19.80;99.90;;;;;;4993655;28;20180;-87
2022/09/06 05:14:24;;;;;;;5.38;3.20;;;19.80;99.90;;;;;;4993639;28;20170;-87
2022/09/06 05:16:50;;;;;;;6.18;3.88;;;19.80;99.90;;;;;;4995467;28;20166;-87
2022/09/06 05:19:18;;;;;;;10.27;3.72;;;19.80;99.90;;;;;;4995082;28;20184;-86
2022/09/06 05:21:44;;;;;;;3.13;2.83;;;19.90;99.90;;;;;;4994156;28;20606;-88
2022/09/06 05:24:10;;;;;;;25.45;3.72;;;20.00;99.90;;;;;;4995876;28;20193;-91
2022/09/06 05:26:35;;;;;;;4.97;3.30;;;20.00;99.90;;;;;;4996405;28;20291;-88
2022/09/06 05:29:01;;;;;;;4.00;3.47;;;20.10;99.90;;;;;;5010641;28;20169;-87
2022/09/06 05:31:32;;;;;;;7.18;3.92;;;20.00;99.90;;;;;;4994322;28;20510;-88
2022/09/06 05:33:58;;;;;;;10.18;2.83;;;19.90;99.90;;;;;;4993250;28;20204;-86
2022/09/06 05:36:25;;;;;;;7.95;3.15;;;19.90;99.90;;;;;;4994334;28;20172;-84
2022/09/06 05:38:52;;;;;;;4.63;3.17;;;20.00;99.90;;;;;;4994623;28;20169;-88
2022/09/06 05:41:18;;;;;;;10.52;3.40;;;19.90;99.90;;;;;;4993736;28;20192;-91
2022/09/06 05:43:44;;;;;;;13.90;3.03;;;20.10;99.90;;;;;;4993689;28;20218;-88
2022/09/06 05:46:10;;;;;;;4.22;2.78;;;20.00;99.90;;;;;;4994540;28;20220;-89
2022/09/06 05:48:37;;;;;;;4.75;3.10;;;20.00;99.90;;;;;;5010979;28;20165;-85
2022/09/06 05:51:06;;;;;;;7.13;2.70;;;20.10;99.90;;;;;;4996131;28;20189;-85
2022/09/06 05:53:37;;;;;;;7.93;3.53;;;20.10;99.90;;;;;;4995222;28;20662;-85
2022/09/06 05:56:05;;;;;;;15.18;4.07;;;20.00;99.90;;;;;;4993683;28;20271;-85
2022/09/06 05:58:31;;;;;;;6.05;3.20;;;19.90;99.90;;;;;;4993420;28;20595;-85
2022/09/06 06:01:26;;;;;;;4.15;2.75;;;20.00;99.90;;;;;;4996087;28;20192;-85
2022/09/06 06:04:02;;;;;;;9.25;2.95;;;20.10;99.90;;;;;;4998021;28;20269;-85
2022/09/06 06:06:30;;;;;;;6.13;3.05;;;20.20;99.90;;;;;;4994386;28;20208;-84
2022/09/06 06:08:56;;;;;;;4.97;2.70;;;20.30;99.90;;;;;;4992804;28;20162;-83
2022/09/06 06:11:23;;;;;;;26.65;4.20;;;20.30;99.90;;;;;;4993476;28;20172;-87
2022/09/06 06:13:49;;;;;;;6.55;2.45;;;20.30;99.90;;;;;;4994796;28;20272;-86
2022/09/06 06:16:17;;;;;;;5.15;2.70;;;20.30;99.90;;;;;;4995564;28;20177;-86
2022/09/06 06:18:46;;;;;;;5.00;2.47;;;20.30;99.90;;;;;;4999173;28;20272;-87
2022/09/06 06:21:14;;;;;;;5.50;2.78;;;20.40;99.90;;;;;;5007029;28;20196;-86
2022/09/06 06:23:41;;;;;;;5.07;2.38;;;20.50;99.90;;;;;;5008277;28;20278;-88
2022/09/06 06:26:08;;;;;;;5.82;2.97;;;20.30;99.90;;;;;;5006126;28;20229;-87
2022/09/06 06:28:35;;;;;;;7.97;2.65;;;20.30;99.90;;;;;;4995674;28;20169;-87
2022/09/06 06:31:05;;;;;;;21.25;2.58;;;20.30;99.90;;;;;;4996985;28;20157;-86
2022/09/06 06:33:31;;;;;;;15.05;3.38;;;20.40;99.90;;;;;;4993832;28;20223;-86
2022/09/06 06:36:06;;;;;;;15.07;3.25;;;20.50;99.90;;;;;;4993824;28;20216;-87
2022/09/06 06:38:33;;;;;;;4.65;2.90;;;20.50;99.90;;;;;;4995032;28;20177;-87
2022/09/06 06:40:59;;;;;;;10.00;2.83;;;20.50;99.90;;;;;;4992939;28;20178;-88
2022/09/06 06:43:25;;;;;;;5.63;2.70;;;20.60;99.90;;;;;;4992528;28;20606;-86
2022/09/06 06:45:51;;;;;;;3.08;2.35;;;20.70;99.90;;;;;;4996492;28;20209;-84
2022/09/06 06:48:16;;;;;;;5.47;2.88;;;20.70;99.90;;;;;;5012859;28;20653;-88
2022/09/06 06:50:42;;;;;;;22.20;3.67;;;20.80;99.90;;;;;;4996535;28;20217;-87
2022/09/06 06:53:08;;;;;;;10.15;2.45;;;21.00;99.90;;;;;;4995870;28;20204;-87
2022/09/06 06:55:33;;;;;;;2.70;2.33;;;21.10;99.90;;;;;;4996762;28;20176;-86
2022/09/06 06:57:59;;;;;;;7.45;2.65;;;21.20;99.90;;;;;;5014116;28;20213;-92
2022/09/06 07:00:25;;;;;;;9.80;2.05;;;21.20;99.90;;;;;;4996979;28;20177;-84
2022/09/06 07:02:51;;;;;;;7.72;2.30;;;21.20;99.90;;;;;;4996572;28;20193;-87
2022/09/06 07:05:17;;;;;;;7.68;2.08;;;21.10;99.90;;;;;;4995956;28;20220;-86
2022/09/06 07:07:43;;;;;;;8.02;1.67;;;21.10;99.90;;;;;;4995811;28;20581;-85
2022/09/06 07:10:09;;;;;;;7.75;2.03;;;21.20;99.90;;;;;;4995839;28;20176;-86
2022/09/06 07:12:35;;;;;;;3.45;1.83;;;21.20;99.90;;;;;;4996256;28;20677;-87
2022/09/06 07:15:01;;;;;;;2.92;1.77;;;21.40;99.90;;;;;;5012429;28;20260;-88
2022/09/06 07:17:27;;;;;;;1.58;1.48;;;21.30;99.90;;;;;;4996592;28;20215;-89
2022/09/06 07:19:52;;;;;;;3.10;1.77;;;21.30;99.90;;;;;;4995751;28;20176;-87
2022/09/06 07:22:20;;;;;;;4.05;2.00;;;21.30;99.90;;;;;;4997154;28;20200;-88
2022/09/06 07:24:46;;;;;;;2.92;1.90;;;21.30;99.90;;;;;;4996000;28;20630;-88
2022/09/06 07:27:11;;;;;;;5.10;1.90;;;21.20;99.90;;;;;;4995477;28;20205;-90
2022/09/06 07:29:37;;;;;;;5.70;2.10;;;21.10;99.90;;;;;;4996550;28;20169;-91
2022/09/06 07:32:02;;;;;;;4.38;2.05;;;21.10;99.90;;;;;;4996712;28;20256;-88
2022/09/06 07:34:28;;;;;;;6.18;2.63;;;21.10;99.90;;;;;;4996188;28;20173;-90
2022/09/06 07:36:54;;;;;;;4.85;2.50;;;21.10;99.90;;;;;;4995630;28;20165;-91
2022/09/06 07:39:20;;;;;;;3.08;2.20;;;21.20;99.90;;;;;;4996694;28;20220;-88
2022/09/06 07:41:46;;;;;;;3.70;2.20;;;21.40;99.90;;;;;;4996933;28;20166;-87
2022/09/06 07:44:12;;;;;;;7.35;2.80;;;21.50;99.90;;;;;;4993790;28;20697;-89
2022/09/06 07:46:38;;;;;;;3.40;2.50;;;21.50;99.90;;;;;;4976311;28;20205;-90
2022/09/06 07:49:04;;;;;;;3.70;2.47;;;21.70;99.90;;;;;;4977286;28;20190;-90
2022/09/06 07:51:30;;;;;;;10.30;2.22;;;21.70;99.90;;;;;;4976389;28;20170;-87
2022/09/06 07:53:57;;;;;;;7.65;2.80;;;22.00;99.90;;;;;;4976745;28;20267;-88
2022/09/06 07:56:23;;;;;;;7.72;2.63;;;22.10;99.90;;;;;;5005342;23;20213;-83
2022/09/06 07:58:50;;;;;;;15.65;3.92;;;22.20;99.90;;;;;;5016229;28;20175;-84
2022/09/06 08:01:31;;;;;;;3.58;3.03;;;22.30;99.90;;;;;;5015160;28;20173;-84
2022/09/06 08:04:05;;;;;;;7.30;3.03;;;22.30;99.90;;;;;;5015633;28;20200;-87
2022/09/06 08:06:34;;;;;;;5.30;3.08;;;22.20;99.90;;;;;;5015978;28;20559;-88
2022/09/06 08:09:01;;;;;;;8.93;2.75;;;22.30;99.90;;;;;;5016038;28;20176;-88
2022/09/06 08:11:29;;;;;;;4.10;3.08;;;22.30;99.90;;;;;;5015773;28;20263;-88
2022/09/06 08:13:56;;;;;;;7.60;3.50;;;22.30;99.90;;;;;;5016946;28;20184;-88
2022/09/06 08:18:55;;;;;;;5.50;3.42;;;22.40;99.90;;;;;;4984200;28;20160;-88
2022/09/06 08:21:22;;;;;;;9.05;4.00;;;22.70;99.90;;;;;;5015498;28;20165;-89
2022/09/06 08:23:54;;;;;;;9.55;4.10;;;22.80;99.90;;;;;;5014848;28;20188;-88
2022/09/06 08:26:21;;;;;;;35.25;5.15;;;23.00;99.90;;;;;;5018801;28;20216;-88
2022/09/06 08:28:47;;;;;;;19.77;4.63;;;23.00;99.90;;;;;;5014308;28;20169;-88
2022/09/06 08:31:15;;;;;;;8.80;4.88;;;23.00;99.90;;;;;;5014128;28;20183;-87
2022/09/06 08:33:41;;;;;;;11.05;4.72;;;23.10;99.90;;;;;;5014442;28;20192;-88
2022/09/06 08:36:08;;;;;;;12.40;4.63;;;23.20;99.90;;;;;;5014106;28;20196;-87
2022/09/06 08:38:34;;;;;;;8.75;5.13;;;23.30;99.90;;;;;;5014288;28;20215;-87
2022/09/06 08:41:24;;;;;;;16.48;5.97;;;23.30;99.90;;;;;;5014186;28;20173;-83
2022/09/06 08:43:58;;;;;;;6.43;5.82;;;23.50;99.90;;;;;;5012131;28;20189;-83
2022/09/06 08:46:40;;;;;;;6.47;5.40;;;23.60;99.90;;;;;;5010838;28;20215;-83
2022/09/06 08:49:06;;;;;;;7.32;5.05;;;23.50;99.90;;;;;;5011607;28;20173;-82
2022/09/06 08:51:56;;;;;;;10.52;5.70;;;23.60;99.90;;;;;;5011654;28;20218;-83
2022/09/06 08:54:37;;;;;;;5.20;4.60;;;23.60;99.90;;;;;;5013049;28;20173;-83
2022/09/06 08:57:05;;;;;;;4.90;4.30;;;23.70;99.90;;;;;;5011865;28;20192;-82
2022/09/06 08:59:37;;;;;;;12.93;4.50;;;23.90;99.90;;;;;;5011923;28;20183;-83
2022/09/06 09:02:08;;;;;;;15.85;4.28;;;24.10;99.90;;;;;;5013131;28;20183;-83
2022/09/06 09:04:37;;;;;;;10.85;4.72;;;24.10;99.90;;;;;;5012045;28;20230;-82
2022/09/06 09:07:20;;;;;;;4.60;3.50;;;24.10;99.90;;;;;;5011642;28;20219;-83
2022/09/06 09:09:46;;;;;;;6.28;3.38;;;24.30;99.90;;;;;;5012126;28;20168;-83
2022/09/06 09:12:17;;;;;;;6.90;4.03;;;24.40;99.90;;;;;;5012944;28;20164;-84
2022/09/06 09:14:47;;;;;;;25.23;4.20;;;24.50;99.90;;;;;;5011823;28;20173;-83
2022/09/06 09:17:21;;;;;;;10.48;3.85;;;24.70;99.90;;;;;;5013203;28;20187;-83
2022/09/06 09:19:47;;;;;;;4.80;2.72;;;24.70;99.90;;;;;;5012493;28;20610;-83
2022/09/06 09:22:18;;;;;;;4.63;2.67;;;24.70;99.90;;;;;;5012148;28;20216;-83
2022/09/06 09:24:46;;;;;;;6.50;3.33;;;24.60;99.90;;;;;;5011575;28;20679;-83
2022/09/06 09:27:15;;;;;;;12.52;4.15;;;24.80;99.90;;;;;;5011628;28;20285;-83
2022/09/06 09:29:53;;;;;;;14.98;3.60;;;24.80;99.90;;;;;;5011247;28;20172;-83
2022/09/06 09:32:36;;;;;;;7.88;3.08;;;25.10;99.90;;;;;;5011652;28;20613;-83
2022/09/06 09:35:18;;;;;;;8.88;3.80;;;25.20;99.90;;;;;;5011928;28;20196;-83
2022/09/06 09:37:44;;;;;;;6.10;2.75;;;25.30;99.90;;;;;;5012401;28;20242;-83
2022/09/06 09:40:40;;;;;;;3.03;2.42;;;25.30;99.90;;;;;;5011721;28;20164;-83
2022/09/06 09:43:36;;;;;;;5.72;2.10;;;25.40;99.90;;;;;;5011384;28;20656;-83
2022/09/06 09:46:21;;;;;;;6.63;2.40;;;25.30;99.90;;;;;;5013249;28;20683;-83
2022/09/06 09:49:06;;;;;;;3.45;2.28;;;25.30;99.90;;;;;;5011467;28;20180;-83
2022/09/06 09:52:05;;;;;;;9.43;2.03;;;25.20;99.90;;;;;;5011577;28;20222;-83
2022/09/06 09:54:35;;;;;;;7.78;1.90;;;25.40;99.90;;;;;;5009060;28;20183;-84
2022/09/06 09:57:06;;;;;;;3.38;2.60;;;25.70;99.90;;;;;;5011680;28;20267;-84
2022/09/06 09:59:41;;;;;;;4.28;2.03;;;25.50;99.90;;;;;;5012093;28;20172;-84
2022/09/06 10:02:23;;;;;;;4.45;1.77;;;25.40;99.90;;;;;;5012280;28;20200;-83
2022/09/06 10:04:52;;;;;;;2.13;1.98;;;25.50;99.90;;;;;;5013549;28;20176;-83
2022/09/06 10:07:23;;;;;;;3.38;1.98;;;25.60;99.90;;;;;;5011768;28;20645;-83
2022/09/06 10:09:49;;;;;;;5.40;2.08;;;25.70;99.90;;;;;;5011813;28;20175;-84
2022/09/06 10:12:28;;;;;;;5.78;2.92;;;25.70;99.90;;;;;;5011836;28;20201;-83
2022/09/06 10:14:55;;;;;;;2.03;1.92;;;25.70;99.90;;;;;;5012335;28;20748;-84
2022/09/06 10:17:33;;;;;;;3.63;2.13;;;25.70;99.90;;;;;;5012327;28;20165;-84
2022/09/06 10:20:03;;;;;;;4.82;1.98;;;25.60;99.90;;;;;;5014125;28;20266;-84
2022/09/06 10:22:41;;;;;;;3.22;2.03;;;25.50;99.90;;;;;;5015060;28;20747;-89
2022/09/06 10:25:45;;;;;;;6.40;1.50;;;25.50;99.90;;;;;;5015902;28;20208;-84
2022/09/06 10:28:22;;;;;;;4.78;2.13;;;25.70;99.90;;;;;;5017517;28;20234;-85
2022/09/06 10:31:06;;;;;;;3.25;1.30;;;25.70;99.90;;;;;;5016299;28;20182;-83
2022/09/06 10:34:10;;;;;;;6.20;1.48;;;25.40;99.90;;;;;;5015848;28;20351;-83
2022/09/06 10:36:44;;;;;;;3.20;1.60;;;25.50;99.90;;;;;;5016562;28;20260;-86
2022/09/06 10:39:44;;;;;;;1.42;1.33;;;25.30;99.90;;;;;;5016358;28;20276;-83
2022/09/06 10:42:29;;;;;;;2.47;1.52;;;25.40;99.90;;;;;;5015414;28;20180;-85
2022/09/06 10:45:16;;;;;;;9.68;1.60;;;25.60;99.90;;;;;;5015107;28;20236;-83
2022/09/06 10:48:06;;;;;;;3.47;1.60;;;25.50;99.90;;;;;;5015107;28;20182;-87
2022/09/06 10:50:44;;;;;;;4.22;1.42;;;25.40;99.90;;;;;;5015355;28;20573;-83
2022/09/06 10:53:16;;;;;;;3.13;1.48;;;25.70;99.90;;;;;;5014985;28;20196;-84
2022/09/06 10:55:46;;;;;;;2.15;1.50;;;25.80;99.90;;;;;;5015047;28;20242;-86
2022/09/06 10:58:16;;;;;;;1.73;1.25;;;25.80;99.90;;;;;;5014684;28;20588;-84
2022/09/06 11:00:46;;;;;;;4.10;1.50;;;25.80;99.90;;;;;;5016125;28;20255;-85
2022/09/06 11:03:30;;;;;;;1.77;1.50;;;25.90;99.90;;;;;;5015764;28;20185;-86
2022/09/06 11:06:05;;;;;;;2.15;1.23;;;26.10;99.90;;;;;;5014947;28;20219;-84
2022/09/06 11:08:49;;;;;;;2.15;1.30;;;26.20;99.90;;;;;;5015168;28;20176;-85
2022/09/06 11:11:43;;;;;;;1.42;1.17;;;26.20;99.90;;;;;;5014771;28;20173;-84
2022/09/06 11:14:14;;;;;;;7.03;1.38;;;26.30;99.90;;;;;;5014903;28;20540;-85
2022/09/06 11:16:50;;;;;;;9.68;1.63;;;26.40;99.90;;;;;;5015858;28;20214;-84
2022/09/06 11:19:32;;;;;;;6.53;2.45;;;26.40;99.90;;;;;;5014585;28;20263;-86
2022/09/06 11:22:17;;;;;;;7.18;3.15;;;26.30;99.90;;;;;;5014871;28;20164;-84
2022/09/06 11:24:51;;;;;;;4.47;1.60;;;26.20;99.90;;;;;;5014331;28;20263;-83
2022/09/06 11:27:36;;;;;;;7.32;1.65;;;26.20;99.90;;;;;;5014236;28;20550;-84
2022/09/06 11:30:05;;;;;;;4.00;1.80;;;26.20;99.90;;;;;;5013357;28;20208;-84
2022/09/06 11:32:47;;;;;;;4.82;1.60;;;26.40;99.90;;;;;;5015018;28;20203;-83
2022/09/06 11:35:22;;;;;;;2.17;1.40;;;26.40;99.90;;;;;;5014383;28;20176;-83
2022/09/06 11:37:56;;;;;;;4.03;1.88;;;26.40;99.90;;;;;;5014079;28;20180;-83
2022/09/06 11:40:47;;;;;;;16.90;1.75;;;26.40;99.90;;;;;;5015355;28;20168;-83
2022/09/06 11:43:41;;;;;;;12.65;2.00;;;26.50;99.90;;;;;;5012346;28;20606;-83
2022/09/06 11:46:07;;;;;;;10.73;1.75;;;26.60;99.90;;;;;;5014154;28;20615;-84
2022/09/06 11:49:08;;;;;;;10.13;1.50;;;26.80;99.90;;;;;;5014129;28;20495;-84
2022/09/06 11:51:38;;;;;;;4.20;1.38;;;27.00;99.90;;;;;;5013297;28;20206;-83
2022/09/06 11:54:08;;;;;;;5.53;1.42;;;27.00;99.90;;;;;;5015397;28;20649;-84
2022/09/06 11:56:38;;;;;;;4.53;1.58;;;26.90;99.90;;;;;;5015405;28;20200;-82
2022/09/06 11:59:17;;;;;;;1.83;1.45;;;27.10;99.90;;;;;;5030559;28;20236;-83
2022/09/06 12:02:30;;;;;;;9.55;1.50;;;27.10;99.90;;;;;;5036939;28;20168;-83
2022/09/06 12:04:59;;;;;;;3.65;1.55;;;27.10;99.90;;;;;;5033093;28;20173;-88
2022/09/06 12:07:26;;;;;;;4.90;1.33;;;26.70;99.90;;;;;;5036530;28;20212;-85
2022/09/06 12:09:52;;;;;;;6.32;1.40;;;26.80;99.90;;;;;;5037638;28;20161;-84
2022/09/06 12:12:43;;;;;;;8.00;1.50;;;26.90;99.90;;;;;;5026526;28;20281;-83
2022/09/06 12:15:29;;;;;;;2.30;1.50;;;26.90;99.90;;;;;;5014118;28;20260;-82
2022/09/06 12:17:57;;;;;;;7.50;1.52;;;27.20;99.90;;;;;;5013940;28;20717;-83
2022/09/06 12:21:02;;;;;;;5.70;1.63;;;27.10;99.90;;;;;;5013167;28;20169;-83
2022/09/06 12:23:34;;;;;;;1.33;1.20;;;27.10;99.90;;;;;;4976242;28;20192;-83
2022/09/06 12:26:02;;;;;;;7.07;1.38;;;27.10;99.90;;;;;;4976210;28;20233;-83
2022/09/06 12:28:33;;;;;;;2.85;1.23;;;27.30;99.90;;;;;;5003597;28;20192;-84
2022/09/06 12:31:00;;;;;;;2.22;0.93;;;27.30;99.90;;;;;;5013056;28;20164;-83
2022/09/06 12:33:31;;;;;;;6.07;1.38;;;27.30;99.90;;;;;;5012528;28;20196;-83
2022/09/06 12:36:20;;;;;;;4.38;1.33;;;27.40;99.90;;;;;;5014293;28;20529;-83
2022/09/06 12:39:01;;;;;;;3.50;1.63;;;27.30;99.90;;;;;;5012544;28;20175;-83
2022/09/06 12:41:29;;;;;;;2.25;1.25;;;27.40;99.90;;;;;;5013468;28;20192;-83
2022/09/06 12:43:58;;;;;;;1.52;1.15;;;27.40;99.90;;;;;;5013841;28;20652;-83
2022/09/06 12:46:26;;;;;;;4.07;0.98;;;27.40;99.90;;;;;;5012456;28;20703;-83
2022/09/06 12:49:08;;;;;;;1.23;1.00;;;27.30;99.90;;;;;;5012452;28;20179;-83
2022/09/06 12:51:36;;;;;;;1.70;1.20;;;27.20;99.90;;;;;;5011509;28;20176;-82
2022/09/06 12:54:05;;;;;;;2.92;1.30;;;27.20;99.90;;;;;;5013500;28;20196;-83
2022/09/06 12:56:33;;;;;;;3.38;1.13;;;27.30;99.90;;;;;;5011920;28;20192;-82
2022/09/06 12:59:15;;;;;;;2.80;1.02;;;27.50;99.90;;;;;;5013451;28;20242;-83
2022/09/06 13:02:04;;;;;;;4.07;1.00;;;27.60;99.90;;;;;;5012111;28;20172;-83
2022/09/06 13:04:35;;;;;;;7.93;0.95;;;27.80;99.90;;;;;;5011745;28;20176;-83
2022/09/06 13:07:03;;;;;;;2.03;1.05;;;27.90;99.90;;;;;;5012206;28;20657;-83
2022/09/06 13:09:30;;;;;;;1.52;1.25;;;28.10;99.90;;;;;;5011783;28;20179;-83
2022/09/06 13:12:05;;;;;;;15.85;1.77;;;28.30;99.90;;;;;;5012238;28;20187;-82